createdAt,value
2023-05-14T00:00:38.037Z,2.55
2023-05-14T00:03:44.068Z,2.65
2023-05-14T00:06:49.870Z,2.20
2023-05-14T00:09:55.859Z,2.35
2023-05-14T00:13:01.445Z,2.63
2023-05-14T00:16:10.146Z,2.60
2023-05-14T00:19:15.515Z,2.83
2023-05-14T00:22:21.350Z,2.63
2023-05-14T00:25:26.780Z,2.35
2023-05-14T00:28:32.304Z,2.75
2023-05-14T00:31:40.468Z,2.80
2023-05-14T00:34:46.257Z,2.20
2023-05-14T00:37:51.672Z,2.80
2023-05-14T00:40:57.119Z,2.60
2023-05-14T00:44:02.273Z,2.58
2023-05-14T00:47:11.055Z,2.17
2023-05-14T00:50:18.013Z,2.58
2023-05-14T00:53:24.042Z,2.85
2023-05-14T00:56:30.187Z,2.78
2023-05-14T00:59:35.599Z,2.25
2023-05-14T01:02:43.789Z,2.30
2023-05-14T01:05:54.666Z,2.65
2023-05-14T01:09:04.814Z,2.75
2023-05-14T01:12:12.785Z,2.85
2023-05-14T01:18:27.293Z,2.80
2023-05-14T01:21:43.260Z,2.75
2023-05-14T01:24:49.274Z,2.60
2023-05-14T01:28:00.097Z,2.33
2023-05-14T01:31:09.150Z,2.60
2023-05-14T01:34:15.658Z,2.80
2023-05-14T01:37:25.118Z,2.90
2023-05-14T01:40:30.772Z,2.50
2023-05-14T01:43:36.532Z,3.00
2023-05-14T01:46:42.804Z,3.25
2023-05-14T01:49:48.374Z,2.67
2023-05-14T01:52:57.062Z,3.17
2023-05-14T01:56:02.557Z,2.67
2023-05-14T01:59:08.216Z,2.88
2023-05-14T02:02:14.315Z,2.90
2023-05-14T02:05:21.673Z,2.35
2023-05-14T02:08:29.462Z,2.30
2023-05-14T02:11:35.088Z,2.90
2023-05-14T02:14:40.910Z,2.70
2023-05-14T02:17:46.410Z,2.53
2023-05-14T02:20:52.207Z,2.60
2023-05-14T02:24:00.068Z,2.40
2023-05-14T02:27:05.300Z,2.60
2023-05-14T02:30:11.422Z,2.50
2023-05-14T02:33:18.014Z,2.60
2023-05-14T02:36:23.564Z,2.55
2023-05-14T02:39:31.681Z,3.10
2023-05-14T02:42:37.202Z,2.72
2023-05-14T02:45:43.601Z,2.70
2023-05-14T02:48:49.203Z,2.63
2023-05-14T02:51:54.989Z,2.80
2023-05-14T02:55:03.103Z,2.95
2023-05-14T02:58:10.935Z,2.25
2023-05-14T03:01:19.131Z,2.45
2023-05-14T03:04:25.491Z,2.25
2023-05-14T03:07:30.811Z,2.55
2023-05-14T03:10:38.936Z,2.42
2023-05-14T03:13:44.192Z,2.20
2023-05-14T03:16:49.752Z,2.70
2023-05-14T03:19:56.240Z,2.42
2023-05-14T03:23:01.698Z,3.08
2023-05-14T03:26:09.473Z,2.60
2023-05-14T03:29:18.564Z,2.38
2023-05-14T03:32:23.859Z,2.75
2023-05-14T03:35:29.470Z,2.30
2023-05-14T03:38:34.632Z,1.83
2023-05-14T03:41:42.869Z,2.40
2023-05-14T03:44:48.422Z,2.10
2023-05-14T03:47:54.711Z,2.28
2023-05-14T03:51:00.133Z,2.33
2023-05-14T03:54:06.941Z,2.40
2023-05-14T03:57:14.871Z,2.20
2023-05-14T04:00:21.919Z,2.05
2023-05-14T04:03:29.912Z,2.50
2023-05-14T04:06:36.207Z,2.30
2023-05-14T04:09:41.557Z,2.47
2023-05-14T04:12:49.396Z,2.15
2023-05-14T04:15:54.735Z,2.72
2023-05-14T04:19:00.236Z,2.65
2023-05-14T04:22:05.977Z,2.30
2023-05-14T04:25:11.984Z,1.85
2023-05-14T04:28:19.697Z,2.30
2023-05-14T04:31:25.466Z,2.80
2023-05-14T04:34:30.549Z,2.08
2023-05-14T04:37:36.318Z,3.53
2023-05-14T04:40:41.681Z,2.22
2023-05-14T04:43:50.182Z,2.50
2023-05-14T04:46:55.678Z,2.28
2023-05-14T04:50:01.397Z,2.25
2023-05-14T04:53:09.610Z,2.28
2023-05-14T04:56:15.428Z,2.15
2023-05-14T04:59:23.675Z,2.25
2023-05-14T05:02:29.340Z,2.38
2023-05-14T05:05:35.465Z,2.33
2023-05-14T05:08:41.874Z,2.00
2023-05-14T05:11:47.554Z,2.20
2023-05-14T05:14:55.520Z,2.33
2023-05-14T05:18:01.144Z,2.28
2023-05-14T05:21:07.174Z,2.22
2023-05-14T05:24:13.741Z,2.03
2023-05-14T05:27:19.236Z,2.10
2023-05-14T05:30:27.332Z,2.00
2023-05-14T05:33:32.697Z,2.22
2023-05-14T05:36:38.407Z,2.08
2023-05-14T05:39:43.812Z,2.42
2023-05-14T05:42:49.348Z,1.90
2023-05-14T05:45:57.327Z,1.92
2023-05-14T05:49:02.934Z,1.92
2023-05-14T05:52:08.561Z,1.90
2023-05-14T05:55:14.158Z,2.13
2023-05-14T05:58:19.468Z,2.30
2023-05-14T06:01:27.885Z,1.80
2023-05-14T06:04:33.243Z,1.90
2023-05-14T06:07:38.560Z,2.35
2023-05-14T06:10:45.616Z,2.28
2023-05-14T06:13:52.421Z,2.33
2023-05-14T06:17:00.669Z,1.98
2023-05-14T06:20:06.328Z,1.95
2023-05-14T06:23:12.560Z,2.10
2023-05-14T06:26:18.081Z,1.92
2023-05-14T06:29:23.879Z,1.85
2023-05-14T06:32:32.168Z,2.22
2023-05-14T06:35:37.693Z,2.10
2023-05-14T06:38:43.216Z,1.80
2023-05-14T06:41:48.453Z,1.92
2023-05-14T06:44:53.813Z,1.30
2023-05-14T06:48:01.990Z,1.40
2023-05-14T06:51:07.693Z,1.77
2023-05-14T06:54:12.999Z,1.50
2023-05-14T06:57:18.552Z,1.10
2023-05-14T07:00:25.009Z,1.10
2023-05-14T07:03:33.596Z,1.45
2023-05-14T07:06:39.247Z,1.10
2023-05-14T07:09:45.421Z,1.13
2023-05-14T07:12:50.973Z,1.35
2023-05-14T07:15:56.383Z,1.25
2023-05-14T07:19:04.531Z,1.60
2023-05-14T07:22:09.950Z,1.58
2023-05-14T07:25:15.988Z,1.83
2023-05-14T07:28:21.474Z,1.38
2023-05-14T07:31:26.997Z,1.30
2023-05-14T07:34:35.189Z,1.50
2023-05-14T07:37:40.946Z,1.77
2023-05-14T07:40:46.642Z,1.55
2023-05-14T07:43:51.907Z,1.52
2023-05-14T07:46:57.450Z,1.63
2023-05-14T07:50:05.766Z,1.60
2023-05-14T07:53:11.513Z,1.25
2023-05-14T07:56:17.144Z,1.30
2023-05-14T07:59:22.902Z,1.20
2023-05-14T08:02:28.623Z,1.10
2023-05-14T08:05:36.829Z,1.00
2023-05-14T08:11:47.426Z,0.98
2023-05-14T08:14:52.819Z,1.30
2023-05-14T08:18:03.568Z,1.27
2023-05-14T08:21:12.012Z,1.70
2023-05-14T08:24:17.759Z,1.25
2023-05-14T08:27:23.516Z,1.50
2023-05-14T08:30:29.248Z,1.20
2023-05-14T08:33:35.136Z,1.88
2023-05-14T08:36:42.979Z,1.88
2023-05-14T08:39:48.659Z,1.70
2023-05-14T08:42:54.331Z,2.05
2023-05-14T08:46:01.704Z,1.98
2023-05-14T08:49:12.119Z,2.55
2023-05-14T08:52:21.375Z,2.03
2023-05-14T08:55:26.748Z,2.08
2023-05-14T08:58:32.526Z,1.88
2023-05-14T09:01:38.549Z,2.03
2023-05-14T09:04:44.519Z,1.85
2023-05-14T09:07:53.013Z,1.75
2023-05-14T09:14:03.315Z,1.90
2023-05-14T09:17:08.750Z,1.45
2023-05-14T09:20:15.653Z,1.38
2023-05-14T09:23:23.868Z,1.60
2023-05-14T09:29:34.969Z,2.10
2023-05-14T09:32:41.228Z,1.25
2023-05-14T09:35:46.545Z,1.58
2023-05-14T09:38:54.696Z,1.60
2023-05-14T09:42:00.198Z,1.35
2023-05-14T09:45:05.663Z,1.80
2023-05-14T09:48:11.898Z,1.55
2023-05-14T09:51:17.940Z,1.40
2023-05-14T09:54:27.136Z,1.45
2023-05-14T09:57:32.701Z,1.23
2023-05-14T10:00:38.681Z,1.67
2023-05-14T10:03:44.298Z,2.22
2023-05-14T10:06:51.593Z,1.80
2023-05-14T10:10:01.594Z,1.47
2023-05-14T10:13:13.427Z,1.20
2023-05-14T10:16:19.989Z,1.48
2023-05-14T10:19:27.513Z,1.75
2023-05-14T10:22:34.959Z,1.20
2023-05-14T10:25:43.373Z,1.42
2023-05-14T10:31:54.462Z,1.30
2023-05-14T10:34:59.854Z,1.38
2023-05-14T10:38:05.045Z,1.13
2023-05-14T10:41:15.564Z,1.60
2023-05-14T10:44:21.052Z,1.65
2023-05-14T10:47:26.692Z,7.15
2023-05-14T10:50:32.752Z,1.55
2023-05-14T10:53:39.765Z,1.38
2023-05-14T10:56:49.522Z,1.40
2023-05-14T10:59:56.497Z,1.80
2023-05-14T11:03:03.036Z,1.53
2023-05-14T11:06:09.775Z,1.60
2023-05-14T11:09:16.321Z,1.50
2023-05-14T11:12:24.468Z,1.40
2023-05-14T11:15:30.103Z,1.83
2023-05-14T11:18:39.108Z,1.40
2023-05-14T11:21:44.548Z,1.30
2023-05-14T11:24:49.825Z,1.20
2023-05-14T11:27:59.150Z,2.53
2023-05-14T11:31:06.002Z,2.08
2023-05-14T11:34:11.569Z,1.50
2023-05-14T11:37:17.826Z,1.45
2023-05-14T11:40:23.451Z,1.83
2023-05-14T11:43:31.888Z,2.78
2023-05-14T11:49:42.157Z,1.15
2023-05-14T11:52:48.927Z,2.28
2023-05-14T11:55:55.960Z,2.15
2023-05-14T11:59:03.857Z,0.90
2023-05-14T12:02:11.902Z,1.20
2023-05-14T12:08:25.298Z,2.58
2023-05-14T12:11:34.002Z,1.83
2023-05-14T12:14:44.016Z,1.52
2023-05-14T12:17:52.987Z,1.30
2023-05-14T12:20:58.731Z,1.00
2023-05-14T12:24:04.049Z,0.95
2023-05-14T12:27:10.130Z,1.02
2023-05-14T12:30:21.867Z,1.40
2023-05-14T12:33:28.244Z,1.42
2023-05-14T12:36:34.025Z,0.98
2023-05-14T12:39:39.800Z,1.67
2023-05-14T12:42:45.114Z,1.40
2023-05-14T12:45:56.450Z,1.38
2023-05-14T12:49:02.209Z,1.25
2023-05-14T12:52:22.742Z,1.25
2023-05-14T12:55:34.710Z,1.27
2023-05-14T12:58:40.262Z,1.40
2023-05-14T13:01:48.286Z,1.25
2023-05-14T13:04:53.463Z,5.90
2023-05-14T13:08:02.889Z,3.13
2023-05-14T13:11:08.655Z,1.30
2023-05-14T13:14:14.301Z,1.50
2023-05-14T13:17:22.132Z,1.70
2023-05-14T13:20:28.162Z,1.30
2023-05-14T13:23:34.101Z,1.90
2023-05-14T13:26:40.157Z,1.30
2023-05-14T13:29:45.728Z,1.42
2023-05-14T13:32:53.951Z,1.13
2023-05-14T13:35:59.849Z,1.30
2023-05-14T13:39:05.211Z,1.50
2023-05-14T13:42:10.740Z,2.00
2023-05-14T13:45:16.245Z,1.83
2023-05-14T13:48:24.352Z,1.67
2023-05-14T13:54:35.498Z,1.67
2023-05-14T13:57:42.106Z,1.70
2023-05-14T14:00:50.426Z,1.70
2023-05-14T14:03:58.326Z,1.52
2023-05-14T14:07:03.835Z,1.42
2023-05-14T14:10:10.044Z,1.38
2023-05-14T14:13:15.524Z,1.40
2023-05-14T14:16:21.172Z,1.08
2023-05-14T14:19:28.992Z,2.00
2023-05-14T14:22:34.456Z,1.30
2023-05-14T14:25:40.161Z,1.40
2023-05-14T14:28:45.925Z,1.30
2023-05-14T14:31:51.586Z,1.23
2023-05-14T14:34:59.809Z,1.38
2023-05-14T14:38:05.356Z,1.40
2023-05-14T14:41:11.530Z,2.10
2023-05-14T14:44:16.912Z,1.40
2023-05-14T14:47:22.933Z,1.17
2023-05-14T14:50:31.127Z,1.27
2023-05-14T14:53:36.789Z,1.55
2023-05-14T14:56:43.423Z,1.38
2023-05-14T14:59:48.995Z,1.00
2023-05-14T15:02:54.607Z,1.20
2023-05-14T15:06:02.658Z,1.60
2023-05-14T15:12:14.556Z,1.50
2023-05-14T15:15:21.224Z,1.40
2023-05-14T15:18:26.850Z,1.58
2023-05-14T15:21:35.070Z,2.03
2023-05-14T15:24:40.655Z,1.40
2023-05-14T15:27:46.055Z,1.70
2023-05-14T15:30:51.926Z,1.63
2023-05-14T15:33:57.748Z,1.80
2023-05-14T15:37:05.918Z,1.70
2023-05-14T15:40:11.831Z,1.55
2023-05-14T15:43:17.222Z,1.35
2023-05-14T15:46:23.097Z,1.70
2023-05-14T15:49:28.960Z,2.47
2023-05-14T15:52:37.224Z,2.10
2023-05-14T15:55:43.000Z,1.77
2023-05-14T15:58:48.403Z,2.90
2023-05-14T16:01:54.064Z,2.00
2023-05-14T16:04:59.443Z,1.88
2023-05-14T16:08:07.657Z,1.65
2023-05-14T16:11:13.187Z,1.70
2023-05-14T16:14:18.815Z,2.03
2023-05-14T16:17:24.488Z,1.50
2023-05-14T16:20:30.302Z,2.20
2023-05-14T16:23:38.562Z,2.05
2023-05-14T16:26:44.036Z,2.20
2023-05-14T16:29:49.586Z,1.55
2023-05-14T16:32:55.080Z,2.00
2023-05-14T16:36:00.782Z,1.88
2023-05-14T16:39:09.085Z,2.00
2023-05-14T16:42:14.563Z,2.00
2023-05-14T16:45:19.797Z,1.90
2023-05-14T16:48:27.614Z,1.77
2023-05-14T16:51:33.163Z,2.30
2023-05-14T16:54:41.654Z,2.45
2023-05-14T16:57:46.823Z,2.95
2023-05-14T17:00:52.034Z,3.35
2023-05-14T17:03:57.741Z,3.63
2023-05-14T17:07:04.255Z,3.45
2023-05-14T17:10:13.012Z,3.90
2023-05-14T17:13:18.812Z,3.80
2023-05-14T17:16:24.452Z,4.57
2023-05-14T17:19:29.968Z,4.22
2023-05-14T17:22:35.825Z,4.70
2023-05-14T17:25:43.997Z,5.20
2023-05-14T17:28:49.343Z,4.75
2023-05-14T17:31:54.955Z,5.47
2023-05-14T17:35:00.656Z,5.90
2023-05-14T17:38:06.252Z,5.57
2023-05-14T17:41:14.486Z,5.60
2023-05-14T17:44:19.711Z,5.13
2023-05-14T17:47:25.612Z,5.20
2023-05-14T17:50:31.325Z,4.72
2023-05-14T17:53:36.810Z,4.57
2023-05-14T17:56:44.780Z,4.68
2023-05-14T17:59:50.290Z,4.30
2023-05-14T18:02:55.766Z,5.00
2023-05-14T18:06:02.154Z,3.85
2023-05-14T18:09:07.897Z,4.03
2023-05-14T18:12:16.036Z,4.45
2023-05-14T18:15:21.833Z,4.60
2023-05-14T18:18:27.673Z,6.18
2023-05-14T18:21:33.163Z,4.72
2023-05-14T18:24:38.803Z,4.82
2023-05-14T18:27:47.351Z,3.80
2023-05-14T18:30:52.904Z,4.40
2023-05-14T18:33:58.550Z,4.00
2023-05-14T18:37:04.390Z,4.20
2023-05-14T18:40:11.574Z,4.20
2023-05-14T18:43:20.158Z,4.45
2023-05-14T18:46:25.619Z,3.95
2023-05-14T18:49:31.350Z,3.92
2023-05-14T18:52:37.065Z,4.25
2023-05-14T18:55:42.794Z,4.50
2023-05-14T18:58:50.675Z,4.28
2023-05-14T19:01:56.400Z,3.97
2023-05-14T19:05:01.875Z,4.97
2023-05-14T19:08:09.916Z,4.60
2023-05-14T19:11:15.464Z,4.03
2023-05-14T19:14:23.514Z,4.07
2023-05-14T19:17:29.433Z,4.68
2023-05-14T19:20:34.883Z,4.93
2023-05-14T19:23:40.241Z,4.75
2023-05-14T19:26:45.658Z,4.47
2023-05-14T19:29:53.618Z,4.35
2023-05-14T19:32:59.148Z,4.72
2023-05-14T19:36:04.590Z,4.65
2023-05-14T19:39:10.279Z,4.80
2023-05-14T19:42:15.425Z,4.93
2023-05-14T19:45:23.645Z,4.70
2023-05-14T19:51:34.163Z,4.47
2023-05-14T19:54:39.804Z,4.40
2023-05-14T19:57:45.216Z,4.95
2023-05-14T20:00:54.873Z,5.55
2023-05-14T20:04:00.557Z,4.60
2023-05-14T20:07:06.128Z,4.97
2023-05-14T20:10:12.214Z,4.38
2023-05-14T20:13:17.532Z,4.35
2023-05-14T20:16:25.850Z,4.70
2023-05-14T20:19:31.372Z,5.03
2023-05-14T20:22:38.585Z,5.25
2023-05-14T20:25:44.580Z,5.05
2023-05-14T20:28:49.949Z,5.40
2023-05-14T20:31:57.980Z,4.70
2023-05-14T20:35:04.055Z,4.53
2023-05-14T20:38:10.267Z,5.75
2023-05-14T20:41:15.834Z,4.35
2023-05-14T20:44:21.532Z,4.75
2023-05-14T20:47:31.605Z,4.63
2023-05-14T20:50:37.006Z,4.72
2023-05-14T20:53:42.550Z,4.15
2023-05-14T20:56:48.137Z,4.68
2023-05-14T20:59:53.410Z,4.88
2023-05-14T21:03:02.047Z,4.57
2023-05-14T21:06:08.155Z,4.35
2023-05-14T21:09:14.260Z,5.15
2023-05-14T21:12:19.747Z,4.93
2023-05-14T21:15:25.364Z,4.10
2023-05-14T21:18:33.439Z,4.10
2023-05-14T21:21:39.093Z,4.32
2023-05-14T21:24:44.540Z,5.57
2023-05-14T21:27:50.339Z,4.10
2023-05-14T21:30:55.901Z,5.07
2023-05-14T21:34:04.136Z,4.90
2023-05-14T21:37:09.381Z,4.25
2023-05-14T21:40:15.391Z,4.68
2023-05-14T21:43:20.590Z,4.00
2023-05-14T21:46:26.123Z,4.50
2023-05-14T21:49:34.442Z,5.05
2023-05-14T21:52:40.119Z,5.40
2023-05-14T21:55:45.688Z,5.03
2023-05-14T21:58:51.173Z,5.35
2023-05-14T22:02:06.803Z,5.10
2023-05-14T22:05:15.796Z,5.80
2023-05-14T22:08:21.398Z,5.13
2023-05-14T22:11:26.618Z,5.18
2023-05-14T22:14:32.270Z,5.22
2023-05-14T22:17:38.333Z,5.35
2023-05-14T22:20:46.390Z,5.95
2023-05-14T22:23:51.925Z,6.03
2023-05-14T22:26:57.413Z,5.43
2023-05-14T22:30:02.978Z,5.55
2023-05-14T22:33:10.479Z,5.77
2023-05-14T22:36:18.885Z,5.95
2023-05-14T22:39:23.992Z,5.50
2023-05-14T22:42:29.563Z,5.95
2023-05-14T22:45:34.929Z,6.10
2023-05-14T22:48:40.848Z,5.55
2023-05-14T22:51:49.068Z,6.18
2023-05-14T22:54:54.854Z,6.18
2023-05-14T22:58:00.306Z,6.30
2023-05-14T23:01:05.698Z,6.03
2023-05-14T23:04:11.139Z,6.70
2023-05-14T23:07:20.079Z,6.00
2023-05-14T23:13:30.250Z,6.00
2023-05-14T23:16:35.888Z,6.47
2023-05-14T23:19:41.807Z,6.57
2023-05-14T23:22:50.021Z,6.20
2023-05-14T23:25:56.373Z,6.65
2023-05-14T23:29:01.927Z,6.80
2023-05-14T23:32:07.556Z,6.80
2023-05-14T23:35:13.219Z,6.00
2023-05-14T23:38:21.882Z,6.30
2023-05-14T23:44:32.036Z,6.70
2023-05-14T23:47:37.408Z,6.70
2023-05-14T23:50:42.664Z,6.57
2023-05-14T23:53:50.885Z,5.80
2023-05-14T23:56:56.333Z,7.15
